createdAt,value
2023-03-28T00:00:47.864Z,1.90
2023-03-28T00:03:18.929Z,1.67
2023-03-28T00:05:49.088Z,1.97
2023-03-28T00:08:17.805Z,1.70
2023-03-28T00:10:47.267Z,1.40
2023-03-28T00:13:15.695Z,1.60
2023-03-28T00:15:44.129Z,1.80
2023-03-28T00:18:12.621Z,2.00
2023-03-28T00:20:42.725Z,2.00
2023-03-28T00:23:11.987Z,1.57
2023-03-28T00:25:41.842Z,1.60
2023-03-28T00:28:11.338Z,1.63
2023-03-28T00:30:39.297Z,1.93
2023-03-28T00:33:07.447Z,1.50
2023-03-28T00:35:36.377Z,1.40
2023-03-28T00:38:04.399Z,1.30
2023-03-28T00:40:37.755Z,2.43
2023-03-28T00:43:05.842Z,1.33
2023-03-28T00:45:35.327Z,1.37
2023-03-28T00:48:14.423Z,1.30
2023-03-28T00:50:48.716Z,1.50
2023-03-28T00:53:20.086Z,1.47
2023-03-28T00:55:50.785Z,1.63
2023-03-28T00:58:23.885Z,1.47
2023-03-28T01:00:54.712Z,1.07
2023-03-28T01:03:27.648Z,2.00
2023-03-28T01:05:57.737Z,1.30
2023-03-28T01:08:30.365Z,1.80
2023-03-28T01:10:59.958Z,1.87
2023-03-28T01:13:32.299Z,1.20
2023-03-28T01:16:03.650Z,1.60
2023-03-28T01:18:34.614Z,1.10
2023-03-28T01:21:31.233Z,1.30
2023-03-28T01:24:31.101Z,1.20
2023-03-28T01:27:03.075Z,1.23
2023-03-28T01:30:01.480Z,1.00
2023-03-28T01:33:12.072Z,1.20
2023-03-28T01:36:33.918Z,1.47
2023-03-28T01:39:12.794Z,1.20
2023-03-28T01:41:47.058Z,1.87
2023-03-28T01:44:22.906Z,1.57
2023-03-28T01:46:58.311Z,1.83
2023-03-28T01:49:34.470Z,1.07
2023-03-28T01:52:10.038Z,1.00
2023-03-28T01:54:45.029Z,1.17
2023-03-28T01:57:17.956Z,1.17
2023-03-28T01:59:51.097Z,1.47
2023-03-28T02:02:27.580Z,1.47
2023-03-28T02:04:57.940Z,1.50
2023-03-28T02:07:26.965Z,1.30
2023-03-28T02:09:58.133Z,1.00
2023-03-28T02:12:31.244Z,3.00
2023-03-28T02:15:04.141Z,0.80
2023-03-28T02:17:35.882Z,1.50
2023-03-28T02:20:11.492Z,1.23
2023-03-28T02:22:45.088Z,1.13
2023-03-28T02:25:14.932Z,1.10
2023-03-28T02:27:45.619Z,0.80
2023-03-28T02:30:14.281Z,1.13
2023-03-28T02:32:44.037Z,1.20
2023-03-28T02:35:12.273Z,0.93
2023-03-28T02:37:50.015Z,1.20
2023-03-28T02:40:40.513Z,1.20
2023-03-28T02:43:26.858Z,1.47
2023-03-28T02:46:29.060Z,1.20
2023-03-28T02:49:17.063Z,1.50
2023-03-28T02:51:56.935Z,1.27
2023-03-28T02:54:30.934Z,1.20
2023-03-28T02:57:06.261Z,0.90
2023-03-28T02:59:38.881Z,1.47
2023-03-28T03:02:06.778Z,0.97
2023-03-28T03:04:34.823Z,1.13
2023-03-28T03:07:02.773Z,2.10
2023-03-28T03:09:30.839Z,0.80
2023-03-28T03:12:00.061Z,1.67
2023-03-28T03:14:28.318Z,1.43
2023-03-28T03:16:56.241Z,1.00
2023-03-28T03:19:24.163Z,1.20
2023-03-28T03:21:52.077Z,1.00
2023-03-28T03:24:20.026Z,1.40
2023-03-28T03:26:47.926Z,1.23
2023-03-28T03:29:17.521Z,1.37
2023-03-28T03:31:45.572Z,1.30
2023-03-28T03:34:13.567Z,1.27
2023-03-28T03:36:42.685Z,1.10
2023-03-28T03:39:10.618Z,1.03
2023-03-28T03:41:38.627Z,1.23
2023-03-28T03:44:06.824Z,1.00
2023-03-28T03:46:36.391Z,1.07
2023-03-28T03:49:04.376Z,1.20
2023-03-28T03:51:34.107Z,0.97
2023-03-28T03:54:02.144Z,1.33
2023-03-28T03:56:30.014Z,1.20
2023-03-28T03:58:58.253Z,1.30
2023-03-28T04:01:30.191Z,1.20
2023-03-28T04:03:59.801Z,1.17
2023-03-28T04:06:29.451Z,1.13
2023-03-28T04:08:57.586Z,1.30
2023-03-28T04:11:25.594Z,1.27
2023-03-28T04:13:53.536Z,0.90
2023-03-28T04:16:21.503Z,0.93
2023-03-28T04:18:52.893Z,1.00
2023-03-28T04:21:27.408Z,1.23
2023-03-28T04:23:55.888Z,1.73
2023-03-28T04:26:26.925Z,1.33
2023-03-28T04:28:55.645Z,2.07
2023-03-28T04:31:29.573Z,1.60
2023-03-28T04:34:00.336Z,1.67
2023-03-28T04:36:29.828Z,1.00
2023-03-28T04:39:02.209Z,1.00
2023-03-28T04:41:32.103Z,1.80
2023-03-28T04:44:00.177Z,1.17
2023-03-28T04:46:29.616Z,1.57
2023-03-28T04:48:57.606Z,1.57
2023-03-28T04:51:25.492Z,2.37
2023-03-28T04:53:54.750Z,1.40
2023-03-28T04:56:23.336Z,1.50
2023-03-28T04:58:51.276Z,1.53
2023-03-28T05:01:19.289Z,1.70
2023-03-28T05:03:47.260Z,1.33
2023-03-28T05:06:15.315Z,1.40
2023-03-28T05:08:43.768Z,1.60
2023-03-28T05:11:13.066Z,3.13
2023-03-28T05:13:41.078Z,1.47
2023-03-28T05:16:09.384Z,1.40
2023-03-28T05:18:37.374Z,1.33
2023-03-28T05:21:06.061Z,1.80
2023-03-28T05:23:34.040Z,1.63
2023-03-28T05:26:02.614Z,1.60
2023-03-28T05:28:32.379Z,1.63
2023-03-28T05:31:00.836Z,1.67
2023-03-28T05:33:29.844Z,1.90
2023-03-28T05:35:57.730Z,1.63
2023-03-28T05:38:26.187Z,1.50
2023-03-28T05:40:54.333Z,2.20
2023-03-28T05:43:22.246Z,1.80
2023-03-28T05:45:51.578Z,1.77
2023-03-28T05:48:19.595Z,1.90
2023-03-28T05:50:49.329Z,1.70
2023-03-28T05:53:17.526Z,1.67
2023-03-28T05:55:45.848Z,1.90
2023-03-28T05:58:14.312Z,2.43
2023-03-28T06:00:44.586Z,3.30
2023-03-28T06:03:17.499Z,2.37
2023-03-28T06:05:46.334Z,2.23
2023-03-28T06:08:14.291Z,2.30
2023-03-28T06:10:42.196Z,2.80
2023-03-28T06:13:10.328Z,2.57
2023-03-28T06:15:38.350Z,3.00
2023-03-28T06:18:06.446Z,2.90
2023-03-28T06:20:35.719Z,3.20
2023-03-28T06:23:04.106Z,2.50
2023-03-28T06:25:32.034Z,3.50
2023-03-28T06:27:59.928Z,3.20
2023-03-28T06:30:27.999Z,2.80
2023-03-28T06:32:56.093Z,3.10
2023-03-28T06:35:23.999Z,2.87
2023-03-28T06:37:53.251Z,2.70
2023-03-28T06:40:21.204Z,3.30
2023-03-28T06:42:49.142Z,2.60
2023-03-28T06:45:17.113Z,2.90
2023-03-28T06:47:45.710Z,2.97
2023-03-28T06:50:13.841Z,3.53
2023-03-28T06:52:41.749Z,2.87
2023-03-28T06:55:11.362Z,3.13
2023-03-28T06:57:39.618Z,2.60
2023-03-28T07:00:09.223Z,3.00
2023-03-28T07:02:37.289Z,3.20
2023-03-28T07:05:05.747Z,3.30
2023-03-28T07:07:33.727Z,2.83
2023-03-28T07:10:01.676Z,2.90
2023-03-28T07:12:31.448Z,2.77
2023-03-28T07:14:59.402Z,2.80
2023-03-28T07:17:27.424Z,2.80
2023-03-28T07:19:55.411Z,3.00
2023-03-28T07:22:23.595Z,3.60
2023-03-28T07:24:51.575Z,2.60
2023-03-28T07:27:19.472Z,2.53
2023-03-28T07:29:48.926Z,2.30
2023-03-28T07:32:17.919Z,3.53
2023-03-28T07:34:46.226Z,2.70
2023-03-28T07:37:14.964Z,3.07
2023-03-28T07:39:43.874Z,2.50
2023-03-28T07:42:12.397Z,2.40
2023-03-28T07:44:55.767Z,3.33
2023-03-28T07:47:23.752Z,2.83
2023-03-28T07:49:52.402Z,2.63
2023-03-28T07:52:20.717Z,2.80
2023-03-28T07:54:48.667Z,2.63
2023-03-28T07:57:16.813Z,2.83
2023-03-28T07:59:44.867Z,3.30
2023-03-28T08:02:15.841Z,2.87
2023-03-28T08:04:44.103Z,2.60
2023-03-28T08:07:12.729Z,3.07
2023-03-28T08:09:40.668Z,2.67
2023-03-28T08:12:08.936Z,1.97
2023-03-28T08:14:53.040Z,2.30
2023-03-28T08:17:22.832Z,2.47
2023-03-28T08:19:50.981Z,2.60
2023-03-28T08:22:19.075Z,2.37
2023-03-28T08:24:47.058Z,2.87
2023-03-28T08:27:15.060Z,2.50
2023-03-28T08:29:43.174Z,1.77
2023-03-28T08:32:11.471Z,2.27
2023-03-28T08:34:40.829Z,2.00
2023-03-28T08:37:08.816Z,2.90
2023-03-28T08:39:37.557Z,1.93
2023-03-28T08:42:36.092Z,1.83
2023-03-28T08:45:24.774Z,1.80
2023-03-28T08:48:02.614Z,2.33
2023-03-28T08:50:34.491Z,1.90
2023-03-28T08:53:03.574Z,2.30
2023-03-28T08:55:34.170Z,2.67
2023-03-28T08:58:03.892Z,2.30
2023-03-28T09:00:33.844Z,2.47
2023-03-28T09:03:02.238Z,2.27
2023-03-28T09:05:39.110Z,2.00
2023-03-28T09:08:22.604Z,2.53
2023-03-28T09:10:59.375Z,2.07
2023-03-28T09:13:36.762Z,2.00
2023-03-28T09:16:19.068Z,1.83
2023-03-28T09:19:11.506Z,1.50
2023-03-28T09:21:59.575Z,2.40
2023-03-28T09:24:49.865Z,2.00
2023-03-28T09:27:25.173Z,1.90
2023-03-28T09:29:59.305Z,2.33
2023-03-28T09:32:30.905Z,2.07
2023-03-28T09:34:59.617Z,2.20
2023-03-28T09:37:39.026Z,2.03
2023-03-28T09:40:18.640Z,1.97
2023-03-28T09:42:56.861Z,2.37
2023-03-28T09:45:35.004Z,1.70
2023-03-28T09:48:03.657Z,1.63
2023-03-28T09:50:32.190Z,2.23
2023-03-28T09:53:01.560Z,1.80
2023-03-28T09:55:32.008Z,1.70
2023-03-28T09:58:04.981Z,1.70
2023-03-28T10:00:37.381Z,1.70
2023-03-28T10:03:06.199Z,1.40
2023-03-28T10:05:37.987Z,1.50
2023-03-28T10:08:22.350Z,1.80
2023-03-28T10:11:00.013Z,1.90
2023-03-28T10:13:28.259Z,1.77
2023-03-28T10:15:58.787Z,2.07
2023-03-28T10:18:28.660Z,1.60
2023-03-28T10:20:57.583Z,2.07
2023-03-28T10:23:27.209Z,1.77
2023-03-28T10:25:55.950Z,2.80
2023-03-28T10:28:31.134Z,1.67
2023-03-28T10:31:01.913Z,2.23
2023-03-28T10:33:34.004Z,1.47
2023-03-28T10:36:06.385Z,1.60
2023-03-28T10:38:45.268Z,1.37
2023-03-28T10:41:22.290Z,2.40
2023-03-28T10:43:52.297Z,1.63
2023-03-28T10:46:22.776Z,1.83
2023-03-28T10:48:54.618Z,1.33
2023-03-28T10:51:24.400Z,1.33
2023-03-28T10:54:16.277Z,1.73
2023-03-28T10:56:52.627Z,1.60
2023-03-28T10:59:46.719Z,1.70
2023-03-28T11:02:37.511Z,2.33
2023-03-28T11:05:21.768Z,1.30
2023-03-28T11:07:59.119Z,1.33
2023-03-28T11:10:35.167Z,1.23
2023-03-28T11:13:12.340Z,2.23
2023-03-28T11:15:46.739Z,1.10
2023-03-28T11:18:27.474Z,1.43
2023-03-28T11:21:03.936Z,1.47
2023-03-28T11:23:43.773Z,1.50
2023-03-28T11:26:15.566Z,1.53
2023-03-28T11:28:59.745Z,1.43
2023-03-28T11:31:31.380Z,1.80
2023-03-28T11:34:03.196Z,2.40
2023-03-28T11:36:37.365Z,1.40
2023-03-28T11:39:12.631Z,1.47
2023-03-28T11:41:43.660Z,1.33
2023-03-28T11:44:19.869Z,2.20
2023-03-28T11:46:52.069Z,1.33
2023-03-28T11:49:25.221Z,1.97
2023-03-28T11:52:02.181Z,1.60
2023-03-28T11:54:36.316Z,1.30
2023-03-28T11:57:12.547Z,1.30
2023-03-28T11:59:46.380Z,1.07
2023-03-28T12:02:30.562Z,1.30
2023-03-28T12:05:03.496Z,1.20
2023-03-28T12:07:37.128Z,0.97
2023-03-28T12:10:13.376Z,2.20
2023-03-28T12:12:56.003Z,1.00
2023-03-28T12:15:38.457Z,1.43
2023-03-28T12:18:11.464Z,1.03
2023-03-28T12:20:45.218Z,1.37
2023-03-28T12:23:24.504Z,1.40
2023-03-28T12:25:58.696Z,1.20
2023-03-28T12:28:35.750Z,1.07
2023-03-28T12:31:10.762Z,0.97
2023-03-28T12:33:51.489Z,0.90
2023-03-28T12:36:26.021Z,0.93
2023-03-28T12:38:59.940Z,3.77
2023-03-28T12:41:31.136Z,1.07
2023-03-28T12:44:05.194Z,0.80
2023-03-28T12:46:45.873Z,1.00
2023-03-28T12:49:19.044Z,0.97
2023-03-28T12:51:50.113Z,0.83
2023-03-28T12:54:25.922Z,1.10
2023-03-28T12:57:05.677Z,1.03
2023-03-28T12:59:59.037Z,1.20
2023-03-28T13:02:33.298Z,0.80
2023-03-28T13:05:11.419Z,1.00
2023-03-28T13:08:00.338Z,1.03
2023-03-28T13:10:37.645Z,0.80
2023-03-28T13:13:18.487Z,0.80
2023-03-28T13:16:06.025Z,1.10
2023-03-28T13:18:35.640Z,1.10
2023-03-28T13:21:07.159Z,1.70
2023-03-28T13:23:45.658Z,1.00
2023-03-28T13:26:14.045Z,1.10
2023-03-28T13:28:47.406Z,1.00
2023-03-28T13:31:25.219Z,2.20
2023-03-28T13:33:58.366Z,1.07
2023-03-28T13:36:28.584Z,2.00
2023-03-28T13:39:20.477Z,0.87
2023-03-28T13:42:00.041Z,1.00
2023-03-28T13:44:37.570Z,0.87
2023-03-28T13:47:07.141Z,1.27
2023-03-28T13:49:43.954Z,1.00
2023-03-28T13:52:16.540Z,1.70
2023-03-28T13:54:45.854Z,1.20
2023-03-28T13:57:18.062Z,0.77
2023-03-28T13:59:53.010Z,0.73
2023-03-28T14:02:32.111Z,0.60
2023-03-28T14:05:12.970Z,1.00
2023-03-28T14:07:41.424Z,0.70
2023-03-28T14:10:28.594Z,1.00
2023-03-28T14:12:59.359Z,1.37
2023-03-28T14:15:31.480Z,0.70
2023-03-28T14:18:02.284Z,1.13
2023-03-28T14:20:30.994Z,1.17
2023-03-28T14:23:01.313Z,1.67
2023-03-28T14:25:30.710Z,0.70
2023-03-28T14:28:06.756Z,0.80
2023-03-28T14:30:39.923Z,0.83
2023-03-28T14:33:20.972Z,1.47
2023-03-28T14:35:58.810Z,0.57
2023-03-28T14:38:32.977Z,1.00
2023-03-28T14:41:10.120Z,0.90
2023-03-28T14:43:38.183Z,0.90
2023-03-28T14:46:09.270Z,1.03
2023-03-28T14:48:40.217Z,1.37
2023-03-28T14:51:12.500Z,0.90
2023-03-28T14:53:45.711Z,1.10
2023-03-28T14:56:19.356Z,1.33
2023-03-28T14:58:50.042Z,1.10
2023-03-28T15:01:22.816Z,1.00
2023-03-28T15:03:54.827Z,1.00
2023-03-28T15:06:24.216Z,1.00
2023-03-28T15:08:52.436Z,1.00
2023-03-28T15:11:25.568Z,0.80
2023-03-28T15:14:02.297Z,0.90
2023-03-28T15:16:32.976Z,1.67
2023-03-28T15:19:06.944Z,0.70
2023-03-28T15:21:36.148Z,1.40
2023-03-28T15:24:05.363Z,1.00
2023-03-28T15:26:36.339Z,2.17
2023-03-28T15:29:06.546Z,1.40
2023-03-28T15:31:35.041Z,0.90
2023-03-28T15:34:10.716Z,1.00
2023-03-28T15:36:38.853Z,0.90
2023-03-28T15:39:20.538Z,0.90
2023-03-28T15:41:49.457Z,0.60
2023-03-28T15:44:27.678Z,0.80
2023-03-28T15:46:59.281Z,1.13
2023-03-28T15:49:30.087Z,1.20
2023-03-28T15:52:02.598Z,1.27
2023-03-28T15:54:32.346Z,1.10
2023-03-28T15:57:03.050Z,1.03
2023-03-28T15:59:35.994Z,1.00
2023-03-28T16:02:30.857Z,1.17
2023-03-28T16:05:02.545Z,0.90
2023-03-28T16:07:35.821Z,1.00
2023-03-28T16:10:04.672Z,0.87
2023-03-28T16:12:33.216Z,1.27
2023-03-28T16:15:03.475Z,1.03
2023-03-28T16:17:33.083Z,1.13
2023-03-28T16:20:02.449Z,1.03
2023-03-28T16:22:31.226Z,0.90
2023-03-28T16:24:59.123Z,0.90
2023-03-28T16:27:31.168Z,1.10
2023-03-28T16:29:59.096Z,1.30
2023-03-28T16:32:27.124Z,1.00
2023-03-28T16:34:55.221Z,0.93
2023-03-28T16:37:24.468Z,0.80
2023-03-28T16:39:52.633Z,1.30
2023-03-28T16:42:21.514Z,1.00
2023-03-28T16:44:49.448Z,1.03
2023-03-28T16:47:17.379Z,1.00
2023-03-28T16:49:45.290Z,1.10
2023-03-28T16:52:13.298Z,1.47
2023-03-28T16:54:42.664Z,1.23
2023-03-28T16:57:11.156Z,1.20
2023-03-28T16:59:39.099Z,1.30
2023-03-28T17:02:07.688Z,1.17
2023-03-28T17:04:35.972Z,1.27
2023-03-28T17:07:04.039Z,1.20
2023-03-28T17:09:32.767Z,1.00
2023-03-28T17:12:02.055Z,1.17
2023-03-28T17:14:29.957Z,1.07
2023-03-28T17:16:57.951Z,1.30
2023-03-28T17:19:26.475Z,1.40
2023-03-28T17:21:55.621Z,2.20
2023-03-28T17:24:23.615Z,1.30
2023-03-28T17:26:51.774Z,1.50
2023-03-28T17:29:21.471Z,1.47
2023-03-28T17:31:49.537Z,1.23
2023-03-28T17:34:17.431Z,1.80
2023-03-28T17:36:45.408Z,1.40
2023-03-28T17:39:13.487Z,1.00
2023-03-28T17:41:41.745Z,3.07
2023-03-28T17:44:10.068Z,1.90
2023-03-28T17:46:39.375Z,1.73
2023-03-28T17:49:08.149Z,1.53
2023-03-28T17:51:36.133Z,2.20
2023-03-28T17:54:06.824Z,1.57
2023-03-28T17:56:34.836Z,1.37
2023-03-28T17:59:02.730Z,1.97
2023-03-28T18:01:30.728Z,1.80
2023-03-28T18:04:00.150Z,1.93
2023-03-28T18:06:28.527Z,1.90
2023-03-28T18:08:56.521Z,1.83
2023-03-28T18:11:24.428Z,1.83
2023-03-28T18:13:56.720Z,2.63
2023-03-28T18:16:24.804Z,2.37
2023-03-28T18:18:54.139Z,2.70
2023-03-28T18:21:23.403Z,2.00
2023-03-28T18:23:51.694Z,2.47
2023-03-28T18:26:19.597Z,2.37
2023-03-28T18:28:47.524Z,2.33
2023-03-28T18:31:17.273Z,2.33
2023-03-28T18:33:45.983Z,2.80
2023-03-28T18:36:14.923Z,2.40
2023-03-28T18:38:46.468Z,2.40
2023-03-28T18:41:14.529Z,1.97
2023-03-28T18:43:43.445Z,2.67
2023-03-28T18:46:16.020Z,2.97
2023-03-28T18:48:45.293Z,2.40
2023-03-28T18:51:13.722Z,2.63
2023-03-28T18:53:42.076Z,2.60
2023-03-28T18:56:13.327Z,2.67
2023-03-28T18:58:41.317Z,2.83
2023-03-28T19:01:11.352Z,2.70
2023-03-28T19:03:42.100Z,2.80
2023-03-28T19:06:12.583Z,3.10
2023-03-28T19:08:41.255Z,2.63
2023-03-28T19:11:13.255Z,3.80
2023-03-28T19:13:41.587Z,2.80
2023-03-28T19:16:11.542Z,2.90
2023-03-28T19:18:41.005Z,2.80
2023-03-28T19:21:10.014Z,2.80
2023-03-28T19:23:37.929Z,3.20
2023-03-28T19:26:08.078Z,3.50
2023-03-28T19:28:39.062Z,2.90
2023-03-28T19:31:09.106Z,3.13
2023-03-28T19:33:37.777Z,2.73
2023-03-28T19:36:06.967Z,2.87
2023-03-28T19:38:37.018Z,3.83
2023-03-28T19:41:10.013Z,3.43
2023-03-28T19:43:40.792Z,2.90
2023-03-28T19:46:09.802Z,3.17
2023-03-28T19:48:37.800Z,3.17
2023-03-28T19:51:06.092Z,2.77
2023-03-28T19:53:34.070Z,3.10
2023-03-28T19:56:02.178Z,2.97
2023-03-28T19:58:31.180Z,3.43
2023-03-28T20:01:01.417Z,3.07
2023-03-28T20:03:29.597Z,3.30
2023-03-28T20:06:02.686Z,3.80
2023-03-28T20:08:31.099Z,3.90
2023-03-28T20:10:59.084Z,3.60
2023-03-28T20:13:27.201Z,3.70
2023-03-28T20:15:55.368Z,3.50
2023-03-28T20:18:24.705Z,3.70
2023-03-28T20:20:54.522Z,3.70
2023-03-28T20:23:24.203Z,3.97
2023-03-28T20:25:54.240Z,3.73
2023-03-28T20:28:24.634Z,3.43
2023-03-28T20:30:54.315Z,3.70
2023-03-28T20:33:23.846Z,5.00
2023-03-28T20:35:56.290Z,3.70
2023-03-28T20:38:24.676Z,4.30
2023-03-28T20:40:52.959Z,4.40
2023-03-28T20:43:21.073Z,4.00
2023-03-28T20:45:53.746Z,4.17
2023-03-28T20:48:25.840Z,4.30
2023-03-28T20:50:55.096Z,5.00
2023-03-28T20:53:23.024Z,4.37
2023-03-28T20:56:00.347Z,4.97
2023-03-28T20:58:29.115Z,5.23
2023-03-28T21:00:58.198Z,4.07
2023-03-28T21:03:39.109Z,4.63
2023-03-28T21:06:09.069Z,4.70
2023-03-28T21:08:37.156Z,4.93
2023-03-28T21:11:05.418Z,4.50
2023-03-28T21:13:33.371Z,4.47
2023-03-28T21:16:01.609Z,5.23
2023-03-28T21:18:29.641Z,4.67
2023-03-28T21:20:58.040Z,3.13
2023-03-28T21:23:27.755Z,5.50
2023-03-28T21:25:56.320Z,4.40
2023-03-28T21:28:24.253Z,4.60
2023-03-28T21:30:59.794Z,4.33
2023-03-28T21:33:28.345Z,4.60
2023-03-28T21:35:56.673Z,4.73
2023-03-28T21:38:24.664Z,4.03
2023-03-28T21:40:54.033Z,4.57
2023-03-28T21:43:21.930Z,4.77
2023-03-28T21:45:50.152Z,4.70
2023-03-28T21:48:18.278Z,4.67
2023-03-28T21:50:51.577Z,4.43
2023-03-28T21:53:19.483Z,4.47
2023-03-28T21:55:47.986Z,3.73
2023-03-28T21:58:17.251Z,4.57
2023-03-28T22:00:45.203Z,3.73
2023-03-28T22:03:13.208Z,3.97
2023-03-28T22:05:42.947Z,3.90
2023-03-28T22:08:11.975Z,4.23
2023-03-28T22:10:45.754Z,3.80
2023-03-28T22:13:14.811Z,3.53
2023-03-28T22:15:44.379Z,4.00
2023-03-28T22:18:13.214Z,3.80
2023-03-28T22:20:43.521Z,3.30
2023-03-28T22:23:11.954Z,3.87
2023-03-28T22:25:40.188Z,3.70
2023-03-28T22:28:09.885Z,3.40
2023-03-28T22:30:39.574Z,3.53
2023-03-28T22:33:10.997Z,3.70
2023-03-28T22:35:39.232Z,3.70
2023-03-28T22:38:07.512Z,3.97
2023-03-28T22:40:35.787Z,3.90
2023-03-28T22:43:04.671Z,3.37
2023-03-28T22:45:33.022Z,3.43
2023-03-28T22:48:03.268Z,3.83
2023-03-28T22:50:33.711Z,3.63
2023-03-28T22:53:02.190Z,3.57
2023-03-28T22:55:30.357Z,3.37
2023-03-28T22:57:58.277Z,3.10
2023-03-28T23:00:27.114Z,2.73
2023-03-28T23:02:55.183Z,3.10
2023-03-28T23:05:23.274Z,3.00
2023-03-28T23:07:52.862Z,3.20
2023-03-28T23:10:20.952Z,3.53
2023-03-28T23:12:49.860Z,3.00
2023-03-28T23:15:18.065Z,3.10
2023-03-28T23:17:46.042Z,3.40
2023-03-28T23:20:15.809Z,2.60
2023-03-28T23:22:46.246Z,3.47
2023-03-28T23:25:16.901Z,2.83
2023-03-28T23:27:44.928Z,3.13
2023-03-28T23:30:14.430Z,2.70
2023-03-28T23:32:42.404Z,2.50
2023-03-28T23:35:11.665Z,3.03
2023-03-28T23:37:41.213Z,2.70
2023-03-28T23:40:14.231Z,2.90
2023-03-28T23:42:45.316Z,2.70
2023-03-28T23:45:14.926Z,2.23
2023-03-28T23:47:43.654Z,2.63
2023-03-28T23:50:12.797Z,2.53
2023-03-28T23:52:40.784Z,2.20
2023-03-28T23:55:09.939Z,2.33
2023-03-28T23:57:37.975Z,2.47
